Timeline UpdatesTrip UpdatesNews PostsPvt PostsTravel TipsAdmin PostsConv PostsFollowed PostsChat RequestsBlog PostsPNR Posts

Disclaimer
Search
 
 
Mon Apr 21, 2014 02:46:32 ISTHomeTrainsΣChainsAtlasPNRForumGalleryNewsFAQTripsMembersLoginFeedback
No Recent News for this Train
Other Trains in the News **new
Latest...
53062 Hatia - Barddhaman Passenger will be diverted via Chandrapura-Katrasgarh-Dhanbad route till 31.08.2013.
Wed Aug 07, 2013 (05:28PM)
⇐ Return Journey: Train# 53061

53062/Hatia-Barddhaman Jn Passenger (UnReserved)

Jan 09 2014 (10:58PM)
Change Departure Station:
Change Arrival Station:
Post a Train Travel TipPost a Train Travel Tip **new
Post a Comment/Question/Picture/VideoPost a Comment/Question/Picture/Video
Pantry/Catering
✕ NO Pantry Car
✕ NO Catering
Loco/Rake Reversals
GMO/Netaji SC Bose Gomoh Junction (6);
RSA - Rake Sharing
Rake/Coach Composition
Loco
BKSC WAG5A
News    PNR    Forum    Time-Table    Availability    Fare Chart    Map    Arr/Dep History    Trips    Gallery    ΣChains    X/O    Timeline    
Travel Time: 9h 10m    34 halts    Distance: 227 km    Avg Speed: 24 km/hr
Type: Passenger
Zone: ER/Eastern
Departs @ 12:00 (Avg 2m late)
Platform# 1
SMTWTFS
Bokaro Steel City/BKSC 
Arrives @ 21:10 (Avg 43m late)
Platform# ???
SMTWTFS
Barddhaman Junction/BWN 

34 halts. 43 intermediate Stations between Bokaro Steel City and Barddhaman Junction

Hide intermediate Stations  Show Old Time-Table

#CodeStation NameX/OArrivesAvgDepartsAvgHaltPFDay#KmSpeedElevZoneAddress
1HTEHatia (3)  -07:55+2--1-119.328657mSER2788599, Jharkhand
1.1AORArgora (1)  08:05-08:05-  1-114.5 28654mSERRanchi, Jharkhand
2RNCRanchi Junction (6)X  08:10+308:15+45m11-112.328632mSERDiv HQ SER, Jharkhand
3NKMNamkom (3)  08:24+508:25+61m--1-108.156618mSERRanchi, Jharkhand
4TISTatisilwai (3)  08:32+708:33+81m--1-101.647612mSERTatisilwai, Jharkhand
5GAGGangaghat (2)X  08:43+808:44+91m--1-93.849543mSERState Highway 2, Jharkhand
5.1KWKCKherwa Kocha  08:55-08:55-  1-84.7 49454mSERlepsar, Jharkhand
6JONJonha (1)X  08:57+908:58+111m11-83.346470mSERJohna, Jharkhand
7KITAKita (2)X  09:19+809:20+91m--1-67.146323mSERState Highway 2, Jharkhand
8SLFSilli (3)X  09:31+709:32+91m--1-58.730269mSERRanchi, Jharkhand
9MURIMuri Junction (3)X  09:45+709:50+85m--1-52.226257mSER06522-222444, Jharkhand
10THOTulin (3)X  10:01+710:02+91m--1-47.438267mSERDIST - PURULIYA - 723212, West Bengal
11JAAJhalida (3)O  10:14+810:15+311m--1-39.914297mSERJhalida, West Bengal
11.1BKDRBegunkodar (2)X  10:37-10:37-  1-34.7 14308mSERSH 4A, West Bengal
12KSXKotshila Junction (3)  11:04+111:05+181m11-28.250312mSERPurulia District, West Bengal
12.1DRGUDamru GhutuX  11:11-11:11-  1-22.9 50291mSERAnandnagar Rd, West Bengal
13PNWPundhag (3)  11:19+1511:20+161m11-16.667291mSERDist - Puruliya -723215, West Bengal
14RDFRadhagaon (3)X  11:29+1511:30+151m--1-6.716247mSERPundag Railway Station Rd, Jharkhand
15BKSC»Bokaro Steel City (3)»X  11:55+112:00+25m110.027245mSER06542-253861, Jharkhand
15.1BKSNBokaro North CabinX  12:06-12:06-  12.7 27239mSERBokaro Steel City, Jharkhand
16TKBTupkadih (3)  12:15-112:16+11m--16.726233mSERBokaro, Jharkhand
17RJBRajabera  12:27+2312:28+231m--111.421198mECRStation Rd, Jharkhand
18CRPChandrapura Junction (2)  12:40+2112:45+205m--115.657227mECR06549-242555, Jharkhand
19TELOTeloX  12:53+2312:55+292m--123.223227mECRBokaro, Jharkhand
20GMONetaji SC Bose Gomoh Junction (6)XO13:20+2914:30+3070m--133.063239mECRGomoh, Jharkhand
21MRQMatari  14:39+3414:40+351m--142.445246mECRDhanbad, Jharkhand
22NPJENichitpur  14:47+3414:48+341m--147.850224mECRKatras, Jharkhand
23TETTetulmari  14:55+3314:56+341m--153.645225mECRTetulmari, Jharkhand
24BHNBhuliX  15:03+3315:04+341m--158.96230mECRKusunda, Jharkhand
25DHNDhanbad Junction (8)X  15:40+1717:00+580m7162.845235mECR2319801. Div. HQ ECR, Jharkhand
26DOKMDokra Halt (2)X  17:07+617:08+61m--168.123211mECRDokra, Jharkhand
27PKAPradhankhunta Junction (3)  17:18+517:19+71m--171.946202mECRDhanbad, Jharkhand
28CAMChhota Ambana (3)X  17:27+1217:28+141m--178.068200mERDhanbad, Jharkhand
29KAOKalubathan (2)X  17:36+1517:37+151m--187.151195mERDhanbad, Jharkhand
30TNWThapar Nagar (2)  17:42+1617:43+161m--191.353144mERDhanbad, Jharkhand
31MMUMugma (3)  17:49+1717:50+291m--196.646135mERNational Highway 2, Jharkhand
32KMMEKumardubi (2)X  17:56+3017:57+301m--1101.238135mERDhanbad - 828203(06540-222077), Jharkhand
33BRRBarakar (2)  18:01+3118:02+311m--1103.849129mERDist. Bardhaman, West Bengal
34ULTKulti (3)  18:06+3318:07+351m--1107.044148mERdist - bardhaman, West Bengal
35STNSitarampur Junction (5)X  18:14+3618:15+371m21112.244139mERG T Rd Before Asansol, West Bengal
36BCQBarachak Junction (4)XO  18:20+3818:21+381m--1115.910127mERdist - bardhaman, West Bengal
37ASNAsansol Junction (7)  18:50+1819:05+1815m61121.053113mERDist - bardhaman, West Bengal
37.1ASNEAsansol EastX  19:07-19:07-  1122.6 53110mERAsansol, West Bengal
38KPKKalipahari (4)X  19:11+2019:12+211m--1126.370106mERBardhaman distt, West Bengal
38.1NMCNimcha  19:20-19:20-  1135.3 70106mERRaniganj, West Bengal
39RNGRaniGanj (4)  19:23+2419:24+321m--1139.15592mERRaniganj, West Bengal
39.1BQTBakhtarnagarX  19:29-19:29-  1143.6 5587mERKajora, West Bengal
40UDLAndal Junction (6)  19:32+3319:34+322m--1146.48286mERAndal, West Bengal
40.1UDLEAndal East Cabin  19:35-19:35-  1148.4 8280mERAndal, West Bengal
40.2EOCAndal East Outer CabinX  19:36-19:36-  1148.8 8280mERAndal, West Bengal
40.3POLPinjrapol  19:39-19:39-  1152.6 8280mERDurgapur, West Bengal
41OYRWaria (4)  19:40+3719:41+381m--1154.65972mERDurgapur, West Bengal
41.1DCOPDurgapur Coke Oven PlantX  19:47-19:47-  1160.9 5978mERDurgapur, West Bengal
42DGRDurgapur (5)X  19:50+3719:52+402m--1163.45971mERDurgapur, West Bengal
43RBHRajbandhX  20:00+4220:02+412m--1171.25872mERRajbandh Rail Station Rd, West Bengal
44PANPanagarh (4)X  20:10+4220:12+432m--1179.06870mERKaksa, West Bengal
45MNAEMankar (4)X  20:21+4320:23+432m--1189.26265mERMankur, West Bengal
46PAJParajX  20:31+4220:33+412m--1197.57852mERNational Highway 2, West Bengal
47GLIGalsi (4)X  20:38+4320:39+431m--1204.04947mERBardhaman, West Bengal
47.1INCIIshan Chandi HaltX  20:47-20:47-  1210.6 4943mERDist - Bardhaman, West Bengal
48KANKhana Junction (5)  20:51+4420:52+441m--1213.95442mERDist - Bardhaman, West Bengal
49TITTalit (4)  20:58+4420:59+441m--1219.34237mERDist - Bardhaman, West Bengal
50BWN•Barddhaman Junction (8)•  21:10+43---1226.9-34mERDist - Barddhaman, West Bengal
Scroll to Top
Scroll to Bottom